sensor_id;sensor_type;location;lat;lon;timestamp;P1;durP1;ratioP1;P2;durP2;ratioP2
4980;SDS011;2507;50.392;7.482;2024-02-15T00:01:03;8.63;;;4.70;;
4980;SDS011;2507;50.392;7.482;2024-02-15T00:03:29;7.10;;;3.87;;
4980;SDS011;2507;50.392;7.482;2024-02-15T00:05:54;3.80;;;3.50;;
4980;SDS011;2507;50.392;7.482;2024-02-15T00:08:20;5.10;;;3.83;;
4980;SDS011;2507;50.392;7.482;2024-02-15T00:10:46;5.20;;;4.03;;
4980;SDS011;2507;50.392;7.482;2024-02-15T00:13:12;9.30;;;4.00;;
4980;SDS011;2507;50.392;7.482;2024-02-15T00:15:37;8.53;;;4.00;;
4980;SDS011;2507;50.392;7.482;2024-02-15T00:18:03;5.67;;;3.50;;
4980;SDS011;2507;50.392;7.482;2024-02-15T00:20:28;10.70;;;4.60;;
4980;SDS011;2507;50.392;7.482;2024-02-15T00:22:54;4.93;;;3.90;;
4980;SDS011;2507;50.392;7.482;2024-02-15T00:25:20;5.73;;;3.90;;
4980;SDS011;2507;50.392;7.482;2024-02-15T00:27:46;4.30;;;3.90;;
4980;SDS011;2507;50.392;7.482;2024-02-15T00:30:11;4.93;;;4.00;;
4980;SDS011;2507;50.392;7.482;2024-02-15T00:32:37;7.43;;;4.93;;
4980;SDS011;2507;50.392;7.482;2024-02-15T00:35:03;5.37;;;4.27;;
4980;SDS011;2507;50.392;7.482;2024-02-15T00:37:34;5.87;;;3.87;;
4980;SDS011;2507;50.392;7.482;2024-02-15T00:39:59;7.87;;;4.10;;
4980;SDS011;2507;50.392;7.482;2024-02-15T00:42:25;3.93;;;3.63;;
4980;SDS011;2507;50.392;7.482;2024-02-15T00:44:51;3.83;;;3.50;;
4980;SDS011;2507;50.392;7.482;2024-02-15T00:47:16;6.20;;;4.00;;
4980;SDS011;2507;50.392;7.482;2024-02-15T00:49:43;4.30;;;3.90;;
4980;SDS011;2507;50.392;7.482;2024-02-15T00:52:09;5.70;;;4.60;;
4980;SDS011;2507;50.392;7.482;2024-02-15T00:54:35;5.27;;;3.07;;
4980;SDS011;2507;50.392;7.482;2024-02-15T00:57:00;8.57;;;3.57;;
4980;SDS011;2507;50.392;7.482;2024-02-15T00:59:25;7.63;;;3.50;;
4980;SDS011;2507;50.392;7.482;2024-02-15T01:01:50;5.60;;;3.47;;
4980;SDS011;2507;50.392;7.482;2024-02-15T01:04:16;4.43;;;3.30;;
4980;SDS011;2507;50.392;7.482;2024-02-15T01:06:41;9.50;;;3.77;;
4980;SDS011;2507;50.392;7.482;2024-02-15T01:09:07;10.43;;;4.07;;
4980;SDS011;2507;50.392;7.482;2024-02-15T01:11:33;5.00;;;3.60;;
4980;SDS011;2507;50.392;7.482;2024-02-15T01:13:59;4.07;;;3.60;;
4980;SDS011;2507;50.392;7.482;2024-02-15T01:16:25;9.53;;;3.60;;
4980;SDS011;2507;50.392;7.482;2024-02-15T01:18:50;3.60;;;3.30;;
4980;SDS011;2507;50.392;7.482;2024-02-15T01:21:15;6.97;;;3.50;;
4980;SDS011;2507;50.392;7.482;2024-02-15T01:23:42;6.07;;;3.90;;
4980;SDS011;2507;50.392;7.482;2024-02-15T01:26:07;6.00;;;3.03;;
4980;SDS011;2507;50.392;7.482;2024-02-15T01:28:33;21.23;;;3.27;;
4980;SDS011;2507;50.392;7.482;2024-02-15T01:30:58;4.53;;;3.83;;
4980;SDS011;2507;50.392;7.482;2024-02-15T01:33:24;7.93;;;4.00;;
4980;SDS011;2507;50.392;7.482;2024-02-15T01:35:49;6.80;;;3.30;;
4980;SDS011;2507;50.392;7.482;2024-02-15T01:38:14;6.77;;;3.00;;
4980;SDS011;2507;50.392;7.482;2024-02-15T01:40:40;3.40;;;3.10;;
4980;SDS011;2507;50.392;7.482;2024-02-15T01:43:05;3.77;;;3.07;;
4980;SDS011;2507;50.392;7.482;2024-02-15T01:45:30;5.83;;;3.30;;
4980;SDS011;2507;50.392;7.482;2024-02-15T01:47:56;5.20;;;3.80;;
4980;SDS011;2507;50.392;7.482;2024-02-15T01:50:23;5.07;;;3.07;;
4980;SDS011;2507;50.392;7.482;2024-02-15T01:52:50;4.13;;;3.47;;
4980;SDS011;2507;50.392;7.482;2024-02-15T01:55:19;5.30;;;3.63;;
4980;SDS011;2507;50.392;7.482;2024-02-15T01:57:45;9.20;;;4.30;;
4980;SDS011;2507;50.392;7.482;2024-02-15T02:00:11;3.73;;;2.83;;
4980;SDS011;2507;50.392;7.482;2024-02-15T02:02:38;3.00;;;2.70;;
4980;SDS011;2507;50.392;7.482;2024-02-15T02:05:07;2.90;;;2.80;;
4980;SDS011;2507;50.392;7.482;2024-02-15T02:07:33;3.23;;;2.93;;
4980;SDS011;2507;50.392;7.482;2024-02-15T02:09:58;9.43;;;2.93;;
4980;SDS011;2507;50.392;7.482;2024-02-15T02:12:24;3.87;;;2.77;;
4980;SDS011;2507;50.392;7.482;2024-02-15T02:14:52;7.47;;;3.33;;
4980;SDS011;2507;50.392;7.482;2024-02-15T02:17:18;4.87;;;2.63;;
4980;SDS011;2507;50.392;7.482;2024-02-15T02:19:44;10.57;;;3.10;;
4980;SDS011;2507;50.392;7.482;2024-02-15T02:22:10;7.40;;;3.53;;
4980;SDS011;2507;50.392;7.482;2024-02-15T02:24:40;4.97;;;3.37;;
4980;SDS011;2507;50.392;7.482;2024-02-15T02:27:13;6.27;;;3.50;;
4980;SDS011;2507;50.392;7.482;2024-02-15T02:29:43;6.40;;;3.53;;
4980;SDS011;2507;50.392;7.482;2024-02-15T02:32:11;6.53;;;4.20;;
4980;SDS011;2507;50.392;7.482;2024-02-15T02:34:37;5.60;;;3.17;;
4980;SDS011;2507;50.392;7.482;2024-02-15T02:37:03;5.90;;;3.57;;
4980;SDS011;2507;50.392;7.482;2024-02-15T02:39:30;5.47;;;3.60;;
4980;SDS011;2507;50.392;7.482;2024-02-15T02:41:56;6.40;;;3.20;;
4980;SDS011;2507;50.392;7.482;2024-02-15T02:44:22;7.50;;;3.90;;
4980;SDS011;2507;50.392;7.482;2024-02-15T02:46:47;4.77;;;3.40;;
4980;SDS011;2507;50.392;7.482;2024-02-15T02:49:12;7.57;;;3.20;;
4980;SDS011;2507;50.392;7.482;2024-02-15T02:51:38;4.13;;;3.00;;
4980;SDS011;2507;50.392;7.482;2024-02-15T02:54:03;10.57;;;3.50;;
4980;SDS011;2507;50.392;7.482;2024-02-15T02:56:31;4.13;;;3.13;;
4980;SDS011;2507;50.392;7.482;2024-02-15T02:58:57;3.63;;;2.97;;
4980;SDS011;2507;50.392;7.482;2024-02-15T03:01:22;4.90;;;2.97;;
4980;SDS011;2507;50.392;7.482;2024-02-15T03:03:51;9.30;;;3.70;;
4980;SDS011;2507;50.392;7.482;2024-02-15T03:06:16;3.93;;;2.90;;
4980;SDS011;2507;50.392;7.482;2024-02-15T03:08:42;7.07;;;3.20;;
4980;SDS011;2507;50.392;7.482;2024-02-15T03:11:07;5.43;;;3.17;;
4980;SDS011;2507;50.392;7.482;2024-02-15T03:13:33;8.20;;;3.33;;
4980;SDS011;2507;50.392;7.482;2024-02-15T03:15:58;7.00;;;2.97;;
4980;SDS011;2507;50.392;7.482;2024-02-15T03:18:23;12.63;;;4.17;;
4980;SDS011;2507;50.392;7.482;2024-02-15T03:20:49;5.73;;;3.20;;
4980;SDS011;2507;50.392;7.482;2024-02-15T03:23:15;4.47;;;3.40;;
4980;SDS011;2507;50.392;7.482;2024-02-15T03:25:40;10.23;;;3.73;;
4980;SDS011;2507;50.392;7.482;2024-02-15T03:28:05;9.77;;;3.67;;
4980;SDS011;2507;50.392;7.482;2024-02-15T03:30:31;6.97;;;3.57;;
4980;SDS011;2507;50.392;7.482;2024-02-15T03:32:58;10.17;;;3.00;;
4980;SDS011;2507;50.392;7.482;2024-02-15T03:35:25;5.37;;;3.43;;
4980;SDS011;2507;50.392;7.482;2024-02-15T03:37:51;6.50;;;3.07;;
4980;SDS011;2507;50.392;7.482;2024-02-15T03:40:17;8.63;;;3.70;;
4980;SDS011;2507;50.392;7.482;2024-02-15T03:42:44;4.87;;;2.83;;
4980;SDS011;2507;50.392;7.482;2024-02-15T03:45:09;7.00;;;2.93;;
4980;SDS011;2507;50.392;7.482;2024-02-15T03:47:36;6.20;;;3.00;;
4980;SDS011;2507;50.392;7.482;2024-02-15T03:50:02;4.53;;;3.03;;
4980;SDS011;2507;50.392;7.482;2024-02-15T03:52:28;6.50;;;2.90;;
4980;SDS011;2507;50.392;7.482;2024-02-15T03:54:54;5.40;;;3.47;;
4980;SDS011;2507;50.392;7.482;2024-02-15T03:57:20;10.57;;;2.70;;
4980;SDS011;2507;50.392;7.482;2024-02-15T03:59:46;6.50;;;3.30;;
4980;SDS011;2507;50.392;7.482;2024-02-15T04:02:15;9.50;;;3.00;;
4980;SDS011;2507;50.392;7.482;2024-02-15T04:04:41;6.37;;;3.00;;
4980;SDS011;2507;50.392;7.482;2024-02-15T04:07:08;4.50;;;2.30;;
4980;SDS011;2507;50.392;7.482;2024-02-15T04:09:33;6.87;;;3.47;;
4980;SDS011;2507;50.392;7.482;2024-02-15T04:12:00;7.50;;;2.90;;
4980;SDS011;2507;50.392;7.482;2024-02-15T04:14:26;7.93;;;3.10;;
4980;SDS011;2507;50.392;7.482;2024-02-15T04:16:51;6.10;;;2.90;;
4980;SDS011;2507;50.392;7.482;2024-02-15T04:19:16;7.07;;;2.73;;
4980;SDS011;2507;50.392;7.482;2024-02-15T04:21:44;3.57;;;2.57;;
4980;SDS011;2507;50.392;7.482;2024-02-15T04:24:10;9.63;;;3.97;;
4980;SDS011;2507;50.392;7.482;2024-02-15T04:26:35;4.20;;;2.57;;
4980;SDS011;2507;50.392;7.482;2024-02-15T04:29:02;7.90;;;2.80;;
4980;SDS011;2507;50.392;7.482;2024-02-15T04:31:28;5.90;;;2.60;;
4980;SDS011;2507;50.392;7.482;2024-02-15T04:33:53;4.87;;;2.50;;
4980;SDS011;2507;50.392;7.482;2024-02-15T04:36:19;3.37;;;2.37;;
4980;SDS011;2507;50.392;7.482;2024-02-15T04:38:48;9.43;;;3.10;;
4980;SDS011;2507;50.392;7.482;2024-02-15T04:41:15;6.80;;;2.10;;
4980;SDS011;2507;50.392;7.482;2024-02-15T04:43:45;5.00;;;3.00;;
4980;SDS011;2507;50.392;7.482;2024-02-15T04:46:11;7.97;;;2.90;;
4980;SDS011;2507;50.392;7.482;2024-02-15T04:48:37;4.10;;;2.50;;
4980;SDS011;2507;50.392;7.482;2024-02-15T04:51:02;5.13;;;2.60;;
4980;SDS011;2507;50.392;7.482;2024-02-15T04:53:28;5.60;;;2.50;;
4980;SDS011;2507;50.392;7.482;2024-02-15T04:55:54;4.90;;;3.00;;
4980;SDS011;2507;50.392;7.482;2024-02-15T04:58:20;8.43;;;3.60;;
4980;SDS011;2507;50.392;7.482;2024-02-15T05:00:45;5.30;;;3.13;;
4980;SDS011;2507;50.392;7.482;2024-02-15T05:03:10;7.10;;;3.07;;
4980;SDS011;2507;50.392;7.482;2024-02-15T05:05:36;3.70;;;2.80;;
4980;SDS011;2507;50.392;7.482;2024-02-15T05:08:03;3.47;;;2.60;;
4980;SDS011;2507;50.392;7.482;2024-02-15T05:10:28;5.73;;;2.73;;
4980;SDS011;2507;50.392;7.482;2024-02-15T05:12:54;2.83;;;2.60;;
4980;SDS011;2507;50.392;7.482;2024-02-15T05:15:20;3.63;;;2.80;;
4980;SDS011;2507;50.392;7.482;2024-02-15T05:17:49;5.07;;;2.77;;
4980;SDS011;2507;50.392;7.482;2024-02-15T05:20:15;5.57;;;2.80;;
4980;SDS011;2507;50.392;7.482;2024-02-15T05:22:40;6.10;;;2.97;;
4980;SDS011;2507;50.392;7.482;2024-02-15T05:25:09;5.23;;;3.30;;
4980;SDS011;2507;50.392;7.482;2024-02-15T05:27:34;7.57;;;2.97;;
4980;SDS011;2507;50.392;7.482;2024-02-15T05:30:01;4.53;;;3.30;;
4980;SDS011;2507;50.392;7.482;2024-02-15T05:32:30;5.13;;;3.00;;
4980;SDS011;2507;50.392;7.482;2024-02-15T05:34:55;7.47;;;3.80;;
4980;SDS011;2507;50.392;7.482;2024-02-15T05:37:20;6.13;;;3.90;;
4980;SDS011;2507;50.392;7.482;2024-02-15T05:39:46;9.03;;;3.83;;
4980;SDS011;2507;50.392;7.482;2024-02-15T05:42:11;9.77;;;3.53;;
4980;SDS011;2507;50.392;7.482;2024-02-15T05:44:36;4.93;;;3.37;;
4980;SDS011;2507;50.392;7.482;2024-02-15T05:47:01;8.97;;;3.37;;
4980;SDS011;2507;50.392;7.482;2024-02-15T05:49:27;15.07;;;4.23;;
4980;SDS011;2507;50.392;7.482;2024-02-15T05:51:52;9.80;;;4.73;;
4980;SDS011;2507;50.392;7.482;2024-02-15T05:54:21;5.33;;;4.10;;
4980;SDS011;2507;50.392;7.482;2024-02-15T05:56:50;21.03;;;5.60;;
4980;SDS011;2507;50.392;7.482;2024-02-15T05:59:17;8.13;;;5.23;;
4980;SDS011;2507;50.392;7.482;2024-02-15T06:01:45;8.20;;;6.13;;
4980;SDS011;2507;50.392;7.482;2024-02-15T06:04:10;8.53;;;5.83;;
4980;SDS011;2507;50.392;7.482;2024-02-15T06:06:35;6.63;;;5.43;;
4980;SDS011;2507;50.392;7.482;2024-02-15T06:09:01;5.17;;;4.50;;
4980;SDS011;2507;50.392;7.482;2024-02-15T06:11:27;8.30;;;4.80;;
4980;SDS011;2507;50.392;7.482;2024-02-15T06:13:53;9.10;;;5.23;;
4980;SDS011;2507;50.392;7.482;2024-02-15T06:16:18;10.53;;;4.47;;
4980;SDS011;2507;50.392;7.482;2024-02-15T06:18:43;9.07;;;4.70;;
4980;SDS011;2507;50.392;7.482;2024-02-15T06:21:08;6.30;;;4.17;;
4980;SDS011;2507;50.392;7.482;2024-02-15T06:23:34;5.00;;;3.90;;
4980;SDS011;2507;50.392;7.482;2024-02-15T06:26:00;6.23;;;3.60;;
4980;SDS011;2507;50.392;7.482;2024-02-15T06:28:27;3.90;;;2.93;;
4980;SDS011;2507;50.392;7.482;2024-02-15T06:31:11;4.47;;;3.83;;
4980;SDS011;2507;50.392;7.482;2024-02-15T06:33:55;4.30;;;3.90;;
4980;SDS011;2507;50.392;7.482;2024-02-15T06:36:49;6.10;;;4.57;;
4980;SDS011;2507;50.392;7.482;2024-02-15T06:39:35;4.27;;;3.87;;
4980;SDS011;2507;50.392;7.482;2024-02-15T06:42:07;44.43;;;25.70;;
4980;SDS011;2507;50.392;7.482;2024-02-15T06:44:34;30.50;;;17.03;;
4980;SDS011;2507;50.392;7.482;2024-02-15T06:47:00;8.00;;;4.33;;
4980;SDS011;2507;50.392;7.482;2024-02-15T06:49:25;4.90;;;3.93;;
4980;SDS011;2507;50.392;7.482;2024-02-15T06:51:51;4.00;;;3.60;;
4980;SDS011;2507;50.392;7.482;2024-02-15T06:54:17;7.13;;;3.97;;
4980;SDS011;2507;50.392;7.482;2024-02-15T06:56:43;6.50;;;4.03;;
4980;SDS011;2507;50.392;7.482;2024-02-15T06:59:11;4.93;;;3.90;;
4980;SDS011;2507;50.392;7.482;2024-02-15T07:01:40;9.00;;;2.97;;
4980;SDS011;2507;50.392;7.482;2024-02-15T07:04:06;7.00;;;3.83;;
4980;SDS011;2507;50.392;7.482;2024-02-15T07:06:33;4.77;;;3.40;;
4980;SDS011;2507;50.392;7.482;2024-02-15T07:09:00;3.07;;;2.77;;
4980;SDS011;2507;50.392;7.482;2024-02-15T07:11:25;9.20;;;3.43;;
4980;SDS011;2507;50.392;7.482;2024-02-15T07:13:50;21.13;;;10.67;;
4980;SDS011;2507;50.392;7.482;2024-02-15T07:16:19;13.07;;;5.60;;
4980;SDS011;2507;50.392;7.482;2024-02-15T07:18:44;5.77;;;5.00;;
4980;SDS011;2507;50.392;7.482;2024-02-15T07:21:11;6.60;;;4.33;;
4980;SDS011;2507;50.392;7.482;2024-02-15T07:23:39;30.10;;;26.30;;
4980;SDS011;2507;50.392;7.482;2024-02-15T07:26:06;21.20;;;15.70;;
4980;SDS011;2507;50.392;7.482;2024-02-15T07:28:31;14.37;;;11.83;;
4980;SDS011;2507;50.392;7.482;2024-02-15T07:30:56;6.83;;;6.13;;
4980;SDS011;2507;50.392;7.482;2024-02-15T07:33:22;7.20;;;5.10;;
4980;SDS011;2507;50.392;7.482;2024-02-15T07:35:48;5.77;;;4.30;;
4980;SDS011;2507;50.392;7.482;2024-02-15T07:38:16;6.70;;;3.60;;
4980;SDS011;2507;50.392;7.482;2024-02-15T07:40:41;5.37;;;3.43;;
4980;SDS011;2507;50.392;7.482;2024-02-15T07:43:07;5.13;;;3.70;;
4980;SDS011;2507;50.392;7.482;2024-02-15T07:45:32;6.43;;;4.87;;
4980;SDS011;2507;50.392;7.482;2024-02-15T07:48:01;6.47;;;5.07;;
4980;SDS011;2507;50.392;7.482;2024-02-15T07:50:29;10.00;;;6.90;;
4980;SDS011;2507;50.392;7.482;2024-02-15T07:52:54;8.73;;;4.73;;
4980;SDS011;2507;50.392;7.482;2024-02-15T07:55:19;6.97;;;3.60;;
4980;SDS011;2507;50.392;7.482;2024-02-15T07:57:45;6.13;;;3.60;;
4980;SDS011;2507;50.392;7.482;2024-02-15T08:00:13;5.07;;;3.73;;
4980;SDS011;2507;50.392;7.482;2024-02-15T08:02:41;4.17;;;3.77;;
4980;SDS011;2507;50.392;7.482;2024-02-15T08:05:07;6.03;;;3.90;;
4980;SDS011;2507;50.392;7.482;2024-02-15T08:07:40;4.17;;;3.87;;
4980;SDS011;2507;50.392;7.482;2024-02-15T08:10:06;10.70;;;4.63;;
4980;SDS011;2507;50.392;7.482;2024-02-15T08:12:46;5.00;;;4.50;;
4980;SDS011;2507;50.392;7.482;2024-02-15T08:15:14;18.93;;;12.10;;
4980;SDS011;2507;50.392;7.482;2024-02-15T08:17:40;25.77;;;19.70;;
4980;SDS011;2507;50.392;7.482;2024-02-15T08:20:11;25.33;;;18.43;;
4980;SDS011;2507;50.392;7.482;2024-02-15T08:22:38;12.10;;;7.10;;
4980;SDS011;2507;50.392;7.482;2024-02-15T08:25:05;16.67;;;12.00;;
4980;SDS011;2507;50.392;7.482;2024-02-15T08:27:35;10.80;;;7.03;;
4980;SDS011;2507;50.392;7.482;2024-02-15T08:30:09;8.97;;;6.73;;
4980;SDS011;2507;50.392;7.482;2024-02-15T08:32:36;18.90;;;8.13;;
4980;SDS011;2507;50.392;7.482;2024-02-15T08:35:02;11.60;;;6.10;;
4980;SDS011;2507;50.392;7.482;2024-02-15T08:37:29;14.63;;;5.40;;
4980;SDS011;2507;50.392;7.482;2024-02-15T08:39:55;25.77;;;18.50;;
4980;SDS011;2507;50.392;7.482;2024-02-15T08:42:21;26.90;;;17.80;;
4980;SDS011;2507;50.392;7.482;2024-02-15T08:44:47;13.30;;;8.87;;
4980;SDS011;2507;50.392;7.482;2024-02-15T08:47:13;10.13;;;6.20;;
4980;SDS011;2507;50.392;7.482;2024-02-15T08:49:39;11.00;;;5.27;;
4980;SDS011;2507;50.392;7.482;2024-02-15T08:52:05;8.07;;;4.93;;
4980;SDS011;2507;50.392;7.482;2024-02-15T08:54:32;7.43;;;4.33;;
4980;SDS011;2507;50.392;7.482;2024-02-15T08:56:58;9.00;;;5.17;;
4980;SDS011;2507;50.392;7.482;2024-02-15T08:59:23;12.83;;;5.47;;
4980;SDS011;2507;50.392;7.482;2024-02-15T09:01:50;6.40;;;5.27;;
4980;SDS011;2507;50.392;7.482;2024-02-15T09:04:15;8.50;;;5.93;;
4980;SDS011;2507;50.392;7.482;2024-02-15T09:06:41;14.83;;;6.70;;
4980;SDS011;2507;50.392;7.482;2024-02-15T09:09:07;9.27;;;5.60;;
4980;SDS011;2507;50.392;7.482;2024-02-15T09:11:33;10.30;;;4.73;;
4980;SDS011;2507;50.392;7.482;2024-02-15T09:13:59;6.70;;;5.10;;
4980;SDS011;2507;50.392;7.482;2024-02-15T09:16:25;7.10;;;5.40;;
4980;SDS011;2507;50.392;7.482;2024-02-15T09:18:50;9.40;;;4.97;;
4980;SDS011;2507;50.392;7.482;2024-02-15T09:21:15;8.87;;;5.43;;
4980;SDS011;2507;50.392;7.482;2024-02-15T09:23:40;6.27;;;4.43;;
4980;SDS011;2507;50.392;7.482;2024-02-15T09:26:06;10.10;;;5.43;;
4980;SDS011;2507;50.392;7.482;2024-02-15T09:28:34;11.33;;;5.70;;
4980;SDS011;2507;50.392;7.482;2024-02-15T09:31:00;8.97;;;5.83;;
4980;SDS011;2507;50.392;7.482;2024-02-15T09:33:26;10.07;;;4.80;;
4980;SDS011;2507;50.392;7.482;2024-02-15T09:35:51;5.60;;;4.60;;
4980;SDS011;2507;50.392;7.482;2024-02-15T09:38:19;13.90;;;7.47;;
4980;SDS011;2507;50.392;7.482;2024-02-15T09:40:44;9.67;;;7.33;;
4980;SDS011;2507;50.392;7.482;2024-02-15T09:43:14;8.70;;;5.70;;
4980;SDS011;2507;50.392;7.482;2024-02-15T09:45:39;5.63;;;4.67;;
4980;SDS011;2507;50.392;7.482;2024-02-15T09:48:05;8.53;;;4.53;;
4980;SDS011;2507;50.392;7.482;2024-02-15T09:50:34;7.03;;;4.70;;
4980;SDS011;2507;50.392;7.482;2024-02-15T09:53:01;6.47;;;5.90;;
4980;SDS011;2507;50.392;7.482;2024-02-15T09:55:27;14.80;;;8.60;;
4980;SDS011;2507;50.392;7.482;2024-02-15T09:57:53;8.13;;;6.57;;
4980;SDS011;2507;50.392;7.482;2024-02-15T10:00:19;10.47;;;5.67;;
4980;SDS011;2507;50.392;7.482;2024-02-15T10:02:52;6.80;;;5.47;;
4980;SDS011;2507;50.392;7.482;2024-02-15T10:05:18;13.00;;;7.87;;
4980;SDS011;2507;50.392;7.482;2024-02-15T10:07:45;7.13;;;4.33;;
4980;SDS011;2507;50.392;7.482;2024-02-15T10:10:14;10.60;;;4.40;;
4980;SDS011;2507;50.392;7.482;2024-02-15T10:12:44;5.87;;;4.07;;
4980;SDS011;2507;50.392;7.482;2024-02-15T10:17:59;5.83;;;4.47;;
4980;SDS011;2507;50.392;7.482;2024-02-15T10:20:26;4.03;;;3.60;;
4980;SDS011;2507;50.392;7.482;2024-02-15T10:25:23;4.03;;;3.40;;
4980;SDS011;2507;50.392;7.482;2024-02-15T10:27:51;9.63;;;3.70;;
4980;SDS011;2507;50.392;7.482;2024-02-15T10:30:26;8.17;;;5.50;;
4980;SDS011;2507;50.392;7.482;2024-02-15T10:32:52;4.37;;;3.73;;
4980;SDS011;2507;50.392;7.482;2024-02-15T10:35:20;6.93;;;4.67;;
4980;SDS011;2507;50.392;7.482;2024-02-15T10:37:47;8.20;;;4.50;;
4980;SDS011;2507;50.392;7.482;2024-02-15T10:40:14;6.63;;;3.87;;
4980;SDS011;2507;50.392;7.482;2024-02-15T10:42:43;6.90;;;3.97;;
4980;SDS011;2507;50.392;7.482;2024-02-15T10:45:11;6.40;;;3.00;;
4980;SDS011;2507;50.392;7.482;2024-02-15T10:47:37;29.13;;;4.17;;
4980;SDS011;2507;50.392;7.482;2024-02-15T10:50:04;6.17;;;3.67;;
4980;SDS011;2507;50.392;7.482;2024-02-15T10:52:31;3.60;;;3.23;;
4980;SDS011;2507;50.392;7.482;2024-02-15T10:55:00;5.80;;;3.00;;
4980;SDS011;2507;50.392;7.482;2024-02-15T10:57:29;3.13;;;2.83;;
4980;SDS011;2507;50.392;7.482;2024-02-15T10:59:58;8.20;;;3.00;;
4980;SDS011;2507;50.392;7.482;2024-02-15T11:02:37;5.70;;;2.53;;
4980;SDS011;2507;50.392;7.482;2024-02-15T11:05:06;5.07;;;2.57;;
4980;SDS011;2507;50.392;7.482;2024-02-15T11:07:36;5.03;;;3.07;;
4980;SDS011;2507;50.392;7.482;2024-02-15T11:10:03;4.67;;;3.50;;
4980;SDS011;2507;50.392;7.482;2024-02-15T11:12:33;3.00;;;2.80;;
4980;SDS011;2507;50.392;7.482;2024-02-15T11:14:59;4.47;;;2.60;;
4980;SDS011;2507;50.392;7.482;2024-02-15T11:20:02;4.20;;;2.30;;
4980;SDS011;2507;50.392;7.482;2024-02-15T11:22:33;6.33;;;2.40;;
4980;SDS011;2507;50.392;7.482;2024-02-15T11:25:01;3.33;;;1.63;;
4980;SDS011;2507;50.392;7.482;2024-02-15T11:27:33;1.83;;;1.57;;
4980;SDS011;2507;50.392;7.482;2024-02-15T11:29:59;2.00;;;1.60;;
4980;SDS011;2507;50.392;7.482;2024-02-15T11:35:07;1.47;;;1.17;;
4980;SDS011;2507;50.392;7.482;2024-02-15T11:40:13;3.03;;;1.20;;
4980;SDS011;2507;50.392;7.482;2024-02-15T11:42:41;1.73;;;1.63;;
4980;SDS011;2507;50.392;7.482;2024-02-15T11:45:08;1.47;;;1.37;;
4980;SDS011;2507;50.392;7.482;2024-02-15T11:47:35;4.13;;;1.77;;
4980;SDS011;2507;50.392;7.482;2024-02-15T11:50:04;2.53;;;1.50;;
4980;SDS011;2507;50.392;7.482;2024-02-15T11:52:33;2.73;;;1.80;;
4980;SDS011;2507;50.392;7.482;2024-02-15T11:55:05;4.40;;;1.50;;
4980;SDS011;2507;50.392;7.482;2024-02-15T11:57:35;9.83;;;1.87;;
4980;SDS011;2507;50.392;7.482;2024-02-15T12:00:25;3.33;;;1.17;;
4980;SDS011;2507;50.392;7.482;2024-02-15T12:03:09;4.00;;;1.50;;
4980;SDS011;2507;50.392;7.482;2024-02-15T12:05:54;3.60;;;2.10;;
4980;SDS011;2507;50.392;7.482;2024-02-15T12:08:38;2.10;;;1.30;;
4980;SDS011;2507;50.392;7.482;2024-02-15T12:11:22;2.00;;;1.20;;
4980;SDS011;2507;50.392;7.482;2024-02-15T12:14:06;2.53;;;0.80;;
4980;SDS011;2507;50.392;7.482;2024-02-15T12:20:03;1.93;;;1.30;;
4980;SDS011;2507;50.392;7.482;2024-02-15T12:22:43;3.03;;;1.67;;
4980;SDS011;2507;50.392;7.482;2024-02-15T12:25:15;2.77;;;1.40;;
4980;SDS011;2507;50.392;7.482;2024-02-15T12:27:41;2.77;;;0.90;;
4980;SDS011;2507;50.392;7.482;2024-02-15T12:30:08;3.33;;;1.60;;
4980;SDS011;2507;50.392;7.482;2024-02-15T12:32:38;2.20;;;1.20;;
4980;SDS011;2507;50.392;7.482;2024-02-15T12:35:10;1.47;;;1.10;;
4980;SDS011;2507;50.392;7.482;2024-02-15T12:38:03;1.53;;;1.03;;
4980;SDS011;2507;50.392;7.482;2024-02-15T12:40:30;2.50;;;1.10;;
4980;SDS011;2507;50.392;7.482;2024-02-15T12:43:01;2.13;;;1.40;;
4980;SDS011;2507;50.392;7.482;2024-02-15T12:45:30;3.60;;;2.13;;
4980;SDS011;2507;50.392;7.482;2024-02-15T12:47:56;2.03;;;1.73;;
4980;SDS011;2507;50.392;7.482;2024-02-15T12:50:23;3.03;;;1.60;;
4980;SDS011;2507;50.392;7.482;2024-02-15T12:52:52;3.33;;;2.00;;
4980;SDS011;2507;50.392;7.482;2024-02-15T12:55:19;6.73;;;2.40;;
4980;SDS011;2507;50.392;7.482;2024-02-15T12:57:49;4.37;;;1.37;;
4980;SDS011;2507;50.392;7.482;2024-02-15T13:00:17;2.27;;;1.30;;
4980;SDS011;2507;50.392;7.482;2024-02-15T13:02:47;2.30;;;1.40;;
4980;SDS011;2507;50.392;7.482;2024-02-15T13:05:16;4.20;;;1.13;;
4980;SDS011;2507;50.392;7.482;2024-02-15T13:07:46;1.77;;;1.67;;
4980;SDS011;2507;50.392;7.482;2024-02-15T13:10:12;6.23;;;1.73;;
4980;SDS011;2507;50.392;7.482;2024-02-15T13:12:40;3.93;;;1.17;;
4980;SDS011;2507;50.392;7.482;2024-02-15T13:15:16;1.90;;;1.37;;
4980;SDS011;2507;50.392;7.482;2024-02-15T13:17:49;4.70;;;1.43;;
4980;SDS011;2507;50.392;7.482;2024-02-15T13:20:18;2.70;;;1.20;;
4980;SDS011;2507;50.392;7.482;2024-02-15T13:22:45;1.70;;;1.10;;
4980;SDS011;2507;50.392;7.482;2024-02-15T13:25:12;1.33;;;0.97;;
4980;SDS011;2507;50.392;7.482;2024-02-15T13:27:41;2.20;;;1.10;;
4980;SDS011;2507;50.392;7.482;2024-02-15T13:30:08;4.63;;;1.30;;
4980;SDS011;2507;50.392;7.482;2024-02-15T13:32:37;2.07;;;1.00;;
4980;SDS011;2507;50.392;7.482;2024-02-15T13:35:06;2.87;;;1.50;;
4980;SDS011;2507;50.392;7.482;2024-02-15T13:37:42;3.50;;;1.20;;
4980;SDS011;2507;50.392;7.482;2024-02-15T13:40:17;1.10;;;0.97;;
4980;SDS011;2507;50.392;7.482;2024-02-15T13:42:45;1.97;;;1.17;;
4980;SDS011;2507;50.392;7.482;2024-02-15T13:45:17;3.33;;;0.90;;
4980;SDS011;2507;50.392;7.482;2024-02-15T13:47:52;1.17;;;0.90;;
4980;SDS011;2507;50.392;7.482;2024-02-15T13:50:18;1.47;;;0.87;;
4980;SDS011;2507;50.392;7.482;2024-02-15T13:52:44;2.90;;;0.97;;
4980;SDS011;2507;50.392;7.482;2024-02-15T13:55:11;2.10;;;1.20;;
4980;SDS011;2507;50.392;7.482;2024-02-15T13:57:37;1.97;;;1.20;;
4980;SDS011;2507;50.392;7.482;2024-02-15T14:00:04;1.30;;;1.20;;
4980;SDS011;2507;50.392;7.482;2024-02-15T14:02:30;1.13;;;1.03;;
4980;SDS011;2507;50.392;7.482;2024-02-15T14:04:57;2.40;;;1.07;;
4980;SDS011;2507;50.392;7.482;2024-02-15T14:07:22;1.13;;;0.90;;
4980;SDS011;2507;50.392;7.482;2024-02-15T14:09:48;2.30;;;1.10;;
4980;SDS011;2507;50.392;7.482;2024-02-15T14:12:13;2.03;;;1.30;;
4980;SDS011;2507;50.392;7.482;2024-02-15T14:14:39;1.40;;;1.30;;
4980;SDS011;2507;50.392;7.482;2024-02-15T14:17:05;2.50;;;0.97;;
4980;SDS011;2507;50.392;7.482;2024-02-15T14:19:30;2.67;;;1.27;;
4980;SDS011;2507;50.392;7.482;2024-02-15T14:21:56;4.40;;;1.53;;
4980;SDS011;2507;50.392;7.482;2024-02-15T14:24:21;2.87;;;1.90;;
4980;SDS011;2507;50.392;7.482;2024-02-15T14:26:48;2.00;;;1.80;;
4980;SDS011;2507;50.392;7.482;2024-02-15T14:29:13;1.40;;;1.30;;
4980;SDS011;2507;50.392;7.482;2024-02-15T14:31:39;3.40;;;1.40;;
4980;SDS011;2507;50.392;7.482;2024-02-15T14:34:23;2.63;;;2.13;;
4980;SDS011;2507;50.392;7.482;2024-02-15T14:36:50;6.93;;;2.03;;
4980;SDS011;2507;50.392;7.482;2024-02-15T14:39:16;5.20;;;1.97;;
4980;SDS011;2507;50.392;7.482;2024-02-15T14:41:41;3.57;;;2.33;;
4980;SDS011;2507;50.392;7.482;2024-02-15T14:44:07;1.60;;;1.10;;
4980;SDS011;2507;50.392;7.482;2024-02-15T14:46:33;3.07;;;1.30;;
4980;SDS011;2507;50.392;7.482;2024-02-15T14:49:00;5.57;;;1.70;;
4980;SDS011;2507;50.392;7.482;2024-02-15T14:51:26;2.33;;;1.50;;
4980;SDS011;2507;50.392;7.482;2024-02-15T14:53:52;1.57;;;1.47;;
4980;SDS011;2507;50.392;7.482;2024-02-15T14:56:17;6.97;;;1.80;;
4980;SDS011;2507;50.392;7.482;2024-02-15T14:58:44;4.57;;;2.17;;
4980;SDS011;2507;50.392;7.482;2024-02-15T15:01:09;2.40;;;1.47;;
4980;SDS011;2507;50.392;7.482;2024-02-15T15:03:34;8.97;;;4.70;;
4980;SDS011;2507;50.392;7.482;2024-02-15T15:06:03;1.93;;;1.70;;
4980;SDS011;2507;50.392;7.482;2024-02-15T15:08:47;3.20;;;2.30;;
4980;SDS011;2507;50.392;7.482;2024-02-15T15:11:31;4.03;;;1.93;;
4980;SDS011;2507;50.392;7.482;2024-02-15T15:14:15;1.73;;;1.63;;
4980;SDS011;2507;50.392;7.482;2024-02-15T15:16:42;3.67;;;1.90;;
4980;SDS011;2507;50.392;7.482;2024-02-15T15:19:07;3.33;;;2.27;;
4980;SDS011;2507;50.392;7.482;2024-02-15T15:21:32;5.60;;;2.13;;
4980;SDS011;2507;50.392;7.482;2024-02-15T15:23:58;4.97;;;2.10;;
4980;SDS011;2507;50.392;7.482;2024-02-15T15:26:23;3.67;;;2.03;;
4980;SDS011;2507;50.392;7.482;2024-02-15T15:28:48;2.10;;;1.80;;
4980;SDS011;2507;50.392;7.482;2024-02-15T15:31:14;2.53;;;2.30;;